createdAt,value
2023-02-05T00:05:01.821Z,0
2023-02-05T00:11:24.731Z,0
2023-02-05T00:17:44.806Z,0
2023-02-05T00:24:07.731Z,0
2023-02-05T00:30:27.821Z,0
2023-02-05T00:36:50.783Z,0
2023-02-05T00:43:10.850Z,0
2023-02-05T00:49:33.761Z,0
2023-02-05T00:55:53.820Z,0
2023-02-05T01:02:16.801Z,0
2023-02-05T01:08:36.804Z,0
2023-02-05T01:14:59.778Z,0
2023-02-05T01:21:19.813Z,0
2023-02-05T01:27:43.179Z,0
2023-02-05T01:34:02.838Z,0
2023-02-05T01:40:25.806Z,0
2023-02-05T01:46:45.807Z,0
2023-02-05T01:53:08.780Z,0
2023-02-05T01:59:28.774Z,0
2023-02-05T02:05:51.821Z,0
2023-02-05T02:12:11.766Z,0
2023-02-05T02:18:34.751Z,0
2023-02-05T02:24:54.776Z,0
2023-02-05T02:31:17.808Z,0
2023-02-05T02:37:37.742Z,0
2023-02-05T02:44:00.789Z,0
2023-02-05T02:50:20.793Z,0
2023-02-05T02:56:43.837Z,0
2023-02-05T03:03:03.798Z,0
2023-02-05T03:09:26.845Z,0
2023-02-05T03:15:46.777Z,0
2023-02-05T03:22:10.046Z,0
2023-02-05T03:28:29.779Z,0
2023-02-05T03:34:52.790Z,0
2023-02-05T03:41:12.746Z,0
2023-02-05T03:47:35.843Z,0
2023-02-05T03:53:57.447Z,0
2023-02-05T04:00:20.749Z,0
2023-02-05T04:06:40.782Z,0
2023-02-05T04:29:28.772Z,0
2023-02-05T04:35:51.736Z,0
2023-02-05T04:42:11.763Z,0
2023-02-05T04:48:34.767Z,0
2023-02-05T04:54:54.768Z,0
2023-02-05T05:01:17.790Z,0
2023-02-05T05:07:37.873Z,0
2023-02-05T05:14:00.753Z,0
2023-02-05T05:20:20.813Z,0
2023-02-05T05:26:43.856Z,0
2023-02-05T05:33:03.766Z,0
2023-02-05T05:39:26.795Z,0
2023-02-05T05:45:46.859Z,0
2023-02-05T05:52:09.756Z,0
2023-02-05T05:58:29.809Z,0
2023-02-05T06:04:52.945Z,0
2023-02-05T06:11:12.803Z,0
2023-02-05T06:17:35.752Z,0
2023-02-05T06:23:55.765Z,0
2023-02-05T06:30:18.848Z,0
2023-02-05T06:36:38.793Z,0
2023-02-05T06:43:01.814Z,0
2023-02-05T06:49:21.805Z,0
2023-02-05T06:55:44.767Z,0
2023-02-05T07:02:05.016Z,0
2023-02-05T07:08:27.819Z,0
2023-02-05T07:14:47.767Z,0
2023-02-05T07:21:10.888Z,0
2023-02-05T07:27:30.790Z,0
2023-02-05T07:33:53.828Z,0
2023-02-05T07:40:13.807Z,0
2023-02-05T07:46:36.786Z,0
2023-02-05T07:52:56.867Z,0
2023-02-05T07:59:19.818Z,5.62
2023-02-05T08:05:39.807Z,5.62
2023-02-05T08:12:02.784Z,5.62
2023-02-05T08:18:22.789Z,5.62
2023-02-05T08:24:45.805Z,0
2023-02-05T08:31:05.856Z,5.62
2023-02-05T08:37:29.983Z,0
2023-02-05T08:43:49.815Z,0
2023-02-05T08:50:12.970Z,5.62
2023-02-05T08:56:32.961Z,5.62
2023-02-05T09:02:55.783Z,5.62
2023-02-05T09:09:15.791Z,5.62
2023-02-05T09:15:38.795Z,5.62
2023-02-05T09:21:58.815Z,0
2023-02-05T09:38:26.715Z,5.62
2023-02-05T09:44:46.779Z,5.62
2023-02-05T09:51:09.836Z,11.25
2023-02-05T09:57:29.816Z,11.25
2023-02-05T10:03:52.807Z,11.25
2023-02-05T10:10:12.832Z,28.12
2023-02-05T10:16:35.831Z,50.62
2023-02-05T10:22:55.798Z,39.38
2023-02-05T10:29:18.761Z,22.5
2023-02-05T10:35:38.834Z,22.5
2023-02-05T10:42:01.779Z,16.88
2023-02-05T10:48:21.801Z,22.5
2023-02-05T10:54:44.820Z,28.12
2023-02-05T11:01:04.779Z,28.12
2023-02-05T11:07:27.872Z,16.88
2023-02-05T11:13:47.846Z,11.25
2023-02-05T11:20:10.800Z,33.75
2023-02-05T11:26:31.117Z,33.75
2023-02-05T11:32:53.881Z,22.5
2023-02-05T11:39:13.765Z,16.88
2023-02-05T11:45:36.798Z,16.88
2023-02-05T11:51:56.829Z,22.5
2023-02-05T11:58:25.079Z,22.5
2023-02-05T12:04:39.768Z,16.88
2023-02-05T12:11:02.812Z,16.88
2023-02-05T12:17:22.868Z,22.5
2023-02-05T12:23:45.796Z,16.88
2023-02-05T12:30:05.828Z,16.88
2023-02-05T12:36:28.829Z,11.25
2023-02-05T12:42:48.814Z,11.25
2023-02-05T12:49:11.889Z,11.25
2023-02-05T12:55:31.768Z,11.25
2023-02-05T13:01:54.805Z,16.88
2023-02-05T13:08:14.827Z,11.25
2023-02-05T13:14:37.842Z,16.88
2023-02-05T13:20:57.930Z,16.88
2023-02-05T13:27:20.807Z,11.25
2023-02-05T13:33:40.843Z,11.25
2023-02-05T13:40:03.817Z,11.25
2023-02-05T13:46:24.039Z,16.88
2023-02-05T13:52:46.852Z,11.25
2023-02-05T13:59:06.800Z,11.25
2023-02-05T14:05:29.852Z,5.62
2023-02-05T14:11:49.772Z,5.62
2023-02-05T14:18:12.777Z,5.62
2023-02-05T14:24:32.809Z,5.62
2023-02-05T14:47:38.701Z,5.62
2023-02-05T14:54:01.744Z,5.62
2023-02-05T15:00:21.765Z,0
2023-02-05T15:06:44.832Z,0
2023-02-05T15:13:04.766Z,5.62
2023-02-05T15:19:27.937Z,0
2023-02-05T15:25:47.872Z,0
2023-02-05T15:32:10.814Z,5.62
2023-02-05T15:38:30.865Z,5.62
2023-02-05T15:44:53.894Z,5.62
2023-02-05T15:51:13.841Z,5.62
2023-02-05T15:57:36.800Z,0
2023-02-05T16:03:56.866Z,0
2023-02-05T16:10:19.802Z,0
2023-02-05T16:16:39.772Z,0
2023-02-05T16:23:02.849Z,0
2023-02-05T16:29:25.804Z,0
2023-02-05T16:35:45.890Z,0
2023-02-05T16:42:05.894Z,0
2023-02-05T16:48:28.842Z,0
2023-02-05T16:54:48.947Z,0
2023-02-05T17:01:11.797Z,0
2023-02-05T17:07:32.036Z,0
2023-02-05T17:13:54.814Z,0
2023-02-05T17:20:14.820Z,0
2023-02-05T17:26:37.816Z,0
2023-02-05T17:32:57.776Z,0
2023-02-05T17:39:20.884Z,0
2023-02-05T17:45:41.043Z,0
2023-02-05T17:52:03.805Z,0
2023-02-05T17:58:23.852Z,0
2023-02-05T18:04:46.783Z,0
2023-02-05T18:11:06.796Z,0
2023-02-05T18:17:29.863Z,0
2023-02-05T18:23:49.745Z,0
2023-02-05T18:30:12.851Z,0
2023-02-05T18:36:32.798Z,0
2023-02-05T18:42:55.818Z,0
2023-02-05T18:49:15.826Z,0
2023-02-05T18:55:38.793Z,0
2023-02-05T19:01:58.841Z,0
2023-02-05T19:08:21.762Z,0
2023-02-05T19:14:41.795Z,0
2023-02-05T19:21:05.067Z,0
2023-02-05T19:27:24.831Z,0
2023-02-05T19:33:47.826Z,0
2023-02-05T19:40:07.761Z,0
2023-02-05T19:55:59.637Z,0
2023-02-05T20:02:19.818Z,0
2023-02-05T20:08:42.997Z,0
2023-02-05T20:15:02.854Z,0
2023-02-05T20:21:25.817Z,0
2023-02-05T20:27:45.847Z,0
2023-02-05T20:34:10.800Z,0
2023-02-05T20:40:30.773Z,0
2023-02-05T20:46:54.243Z,0
2023-02-05T20:53:15.772Z,0
2023-02-05T20:59:39.776Z,0
2023-02-05T21:06:00.824Z,0
2023-02-05T21:12:23.792Z,0
2023-02-05T21:18:43.884Z,0
2023-02-05T21:25:06.772Z,0
2023-02-05T21:31:26.899Z,0
2023-02-05T21:37:49.814Z,0
2023-02-05T21:44:09.808Z,0
2023-02-05T21:50:33.205Z,0
2023-02-05T21:56:52.746Z,0
2023-02-05T22:03:15.828Z,0
2023-02-05T22:09:35.846Z,0
2023-02-05T22:15:58.817Z,0
2023-02-05T22:22:18.896Z,0
2023-02-05T22:28:41.847Z,0
2023-02-05T22:35:01.773Z,0
2023-02-05T22:41:24.885Z,0
2023-02-05T22:47:44.764Z,0
2023-02-05T22:54:07.819Z,0
2023-02-05T23:00:27.844Z,0
2023-02-05T23:23:24.756Z,0
2023-02-05T23:29:44.747Z,0
2023-02-05T23:36:07.768Z,0
2023-02-05T23:42:27.902Z,0
2023-02-05T23:48:50.797Z,0
2023-02-05T23:55:10.807Z,0
